createdAt,value
2023-04-04T00:00:41.632Z,4.50
2023-04-04T00:03:10.270Z,4.40
2023-04-04T00:05:38.550Z,4.40
2023-04-04T00:08:07.305Z,4.40
2023-04-04T00:10:35.632Z,4.40
2023-04-04T00:13:05.706Z,4.30
2023-04-04T00:15:34.662Z,4.30
2023-04-04T00:18:04.948Z,4.20
2023-04-04T00:20:33.130Z,4.20
2023-04-04T00:23:01.254Z,4.20
2023-04-04T00:25:29.446Z,4.20
2023-04-04T00:28:00.706Z,4.10
2023-04-04T00:30:29.596Z,4.10
2023-04-04T00:32:58.207Z,4.10
2023-04-04T00:35:28.063Z,4.00
2023-04-04T00:37:56.363Z,4.00
2023-04-04T00:40:24.616Z,3.90
2023-04-04T00:42:53.100Z,3.90
2023-04-04T00:45:21.595Z,3.90
2023-04-04T00:47:51.160Z,3.90
2023-04-04T00:50:19.420Z,3.90
2023-04-04T00:52:48.929Z,3.80
2023-04-04T00:55:17.566Z,3.80
2023-04-04T00:57:45.703Z,3.80
2023-04-04T01:00:16.510Z,3.80
2023-04-04T01:02:44.829Z,3.80
2023-04-04T01:05:13.560Z,3.80
2023-04-04T01:07:42.976Z,3.70
2023-04-04T01:10:13.409Z,3.70
2023-04-04T01:12:43.358Z,3.70
2023-04-04T01:15:12.459Z,3.70
2023-04-04T01:17:41.996Z,3.60
2023-04-04T01:20:14.491Z,3.50
2023-04-04T01:22:44.563Z,3.50
2023-04-04T01:25:15.629Z,3.40
2023-04-04T01:27:45.619Z,3.40
2023-04-04T01:30:16.123Z,3.30
2023-04-04T01:32:46.999Z,3.30
2023-04-04T01:35:25.766Z,3.40
2023-04-04T01:38:09.477Z,3.30
2023-04-04T01:40:39.557Z,3.30
2023-04-04T01:43:10.009Z,3.30
2023-04-04T01:45:38.352Z,3.30
2023-04-04T01:48:06.790Z,3.20
2023-04-04T01:50:35.016Z,3.20
2023-04-04T01:53:03.174Z,3.10
2023-04-04T01:55:31.286Z,3.10
2023-04-04T01:57:59.430Z,3.10
2023-04-04T02:00:28.901Z,3.10
2023-04-04T02:02:57.313Z,3.10
2023-04-04T02:05:25.782Z,3.00
2023-04-04T02:07:53.941Z,3.00
2023-04-04T02:10:22.098Z,2.90
2023-04-04T02:12:50.217Z,2.90
2023-04-04T02:15:19.427Z,2.90
2023-04-04T02:17:50.613Z,2.80
2023-04-04T02:20:19.552Z,2.80
2023-04-04T02:22:57.675Z,2.80
2023-04-04T02:25:26.491Z,2.70
2023-04-04T02:27:54.666Z,2.70
2023-04-04T02:30:22.814Z,2.70
2023-04-04T02:32:52.410Z,2.60
2023-04-04T02:35:20.717Z,2.50
2023-04-04T02:37:49.021Z,2.40
2023-04-04T02:40:17.196Z,2.30
2023-04-04T02:42:45.602Z,2.30
2023-04-04T02:45:14.883Z,2.40
2023-04-04T02:47:43.605Z,2.30
2023-04-04T02:50:13.349Z,2.30
2023-04-04T02:52:41.486Z,2.30
2023-04-04T02:55:10.597Z,2.30
2023-04-04T02:57:38.955Z,2.20
2023-04-04T03:00:08.504Z,2.20
2023-04-04T03:02:36.870Z,2.20
2023-04-04T03:05:05.365Z,2.10
2023-04-04T03:07:34.916Z,2.10
2023-04-04T03:10:03.076Z,2.10
2023-04-04T03:12:31.377Z,2.00
2023-04-04T03:14:59.511Z,2.00
2023-04-04T03:17:27.690Z,1.90
2023-04-04T03:19:55.842Z,1.90
2023-04-04T03:22:23.998Z,1.90
2023-04-04T03:24:53.504Z,1.90
2023-04-04T03:27:22.188Z,1.80
2023-04-04T03:29:50.317Z,1.80
2023-04-04T03:32:19.283Z,1.80
2023-04-04T03:34:47.463Z,1.80
2023-04-04T03:37:15.605Z,1.80
2023-04-04T03:39:43.710Z,1.80
2023-04-04T03:42:13.577Z,1.70
2023-04-04T03:44:41.944Z,1.70
2023-04-04T03:47:10.078Z,1.70
2023-04-04T03:49:38.241Z,1.60
2023-04-04T03:52:06.790Z,1.60
2023-04-04T03:54:35.120Z,1.60
2023-04-04T03:57:03.798Z,1.50
2023-04-04T03:59:33.330Z,1.50
2023-04-04T04:02:01.460Z,1.50
2023-04-04T04:04:29.659Z,1.50
2023-04-04T04:06:58.561Z,1.50
2023-04-04T04:09:27.092Z,1.50
2023-04-04T04:11:55.268Z,1.50
2023-04-04T04:14:23.509Z,1.50
2023-04-04T04:16:53.038Z,1.40
2023-04-04T04:19:21.610Z,1.40
2023-04-04T04:21:49.762Z,1.30
2023-04-04T04:24:17.996Z,1.30
2023-04-04T04:26:46.117Z,1.30
2023-04-04T04:29:14.224Z,1.30
2023-04-04T04:31:42.323Z,1.30
2023-04-04T04:34:11.898Z,1.30
2023-04-04T04:36:40.063Z,1.30
2023-04-04T04:39:08.253Z,1.30
2023-04-04T04:41:36.791Z,1.20
2023-04-04T04:44:04.926Z,1.20
2023-04-04T04:46:33.223Z,1.20
2023-04-04T04:49:01.428Z,1.20
2023-04-04T04:51:31.015Z,1.10
2023-04-04T04:53:59.298Z,1.20
2023-04-04T04:56:27.502Z,1.10
2023-04-04T04:58:55.667Z,1.20
2023-04-04T05:01:23.979Z,1.20
2023-04-04T05:03:53.372Z,1.20
2023-04-04T05:06:22.078Z,1.20
2023-04-04T05:08:51.838Z,1.10
2023-04-04T05:11:20.005Z,1.10
2023-04-04T05:13:48.521Z,1.10
2023-04-04T05:16:16.686Z,1.10
2023-04-04T05:18:44.836Z,1.00
2023-04-04T05:21:13.370Z,1.00
2023-04-04T05:23:41.883Z,1.00
2023-04-04T05:26:11.364Z,1.10
2023-04-04T05:28:40.646Z,1.10
2023-04-04T05:31:08.841Z,1.10
2023-04-04T05:33:36.977Z,1.10
2023-04-04T05:36:05.475Z,1.10
2023-04-04T05:38:33.635Z,1.10
2023-04-04T05:41:01.737Z,1.10
2023-04-04T05:43:31.267Z,1.10
2023-04-04T05:45:59.446Z,1.20
2023-04-04T05:48:27.593Z,1.20
2023-04-04T05:50:55.719Z,1.20
2023-04-04T05:53:23.947Z,1.20
2023-04-04T05:55:53.682Z,1.20
2023-04-04T05:58:22.353Z,1.20
2023-04-04T06:00:51.752Z,1.30
2023-04-04T06:03:21.991Z,1.20
2023-04-04T06:05:53.495Z,1.30
2023-04-04T06:08:21.836Z,1.30
2023-04-04T06:10:50.001Z,1.40
2023-04-04T06:13:18.147Z,1.50
2023-04-04T06:15:46.389Z,1.60
2023-04-04T06:18:17.441Z,1.60
2023-04-04T06:20:45.718Z,1.70
2023-04-04T06:23:13.916Z,1.80
2023-04-04T06:25:42.047Z,1.90
2023-04-04T06:28:11.138Z,2.10
2023-04-04T06:30:39.706Z,2.20
2023-04-04T06:33:08.132Z,2.40
2023-04-04T06:35:37.662Z,2.50
2023-04-04T06:38:05.983Z,2.60
2023-04-04T06:40:34.108Z,2.80
2023-04-04T06:43:02.250Z,2.90
2023-04-04T06:45:33.447Z,3.20
2023-04-04T06:48:01.734Z,3.40
2023-04-04T06:50:32.364Z,3.70
2023-04-04T06:53:02.150Z,4.00
2023-04-04T06:55:30.344Z,4.20
2023-04-04T06:57:58.480Z,4.40
2023-04-04T07:00:26.711Z,4.60
2023-04-04T07:03:00.011Z,4.90
2023-04-04T07:05:28.533Z,5.20
2023-04-04T07:07:57.207Z,5.40
2023-04-04T07:10:27.420Z,5.60
2023-04-04T07:12:55.582Z,6.00
2023-04-04T07:15:23.607Z,6.20
2023-04-04T07:17:51.875Z,6.50
2023-04-04T07:20:20.129Z,6.80
2023-04-04T07:22:49.577Z,7.10
2023-04-04T07:25:17.815Z,7.50
2023-04-04T07:27:47.688Z,7.70
2023-04-04T07:30:16.715Z,7.90
2023-04-04T07:32:45.231Z,8.10
2023-04-04T07:35:13.863Z,8.50
2023-04-04T07:37:41.959Z,8.90
2023-04-04T07:40:12.148Z,9.10
2023-04-04T07:42:46.776Z,9.40
2023-04-04T07:45:15.342Z,9.70
2023-04-04T07:47:44.907Z,10.00
2023-04-04T07:50:13.234Z,10.00
2023-04-04T07:52:41.812Z,9.90
2023-04-04T07:55:11.479Z,9.60
2023-04-04T07:57:40.112Z,10.00
2023-04-04T08:00:11.011Z,10.30
2023-04-04T08:02:39.472Z,10.30
2023-04-04T08:05:09.108Z,10.50
2023-04-04T08:07:37.473Z,10.70
2023-04-04T08:10:06.302Z,10.80
2023-04-04T08:12:34.474Z,11.00
2023-04-04T08:15:03.122Z,10.70
2023-04-04T08:17:32.613Z,10.80
2023-04-04T08:20:00.736Z,11.10
2023-04-04T08:22:28.886Z,11.30
2023-04-04T08:24:56.990Z,11.60
2023-04-04T08:27:25.170Z,11.50
2023-04-04T08:29:53.320Z,10.60
2023-04-04T08:32:22.344Z,9.50
2023-04-04T08:34:52.246Z,10.20
2023-04-04T08:37:20.435Z,11.20
2023-04-04T08:39:48.544Z,11.80
2023-04-04T08:42:20.650Z,12.10
2023-04-04T08:44:52.165Z,12.00
2023-04-04T08:47:22.782Z,12.20
2023-04-04T08:49:54.243Z,11.10
2023-04-04T08:52:25.094Z,11.50
2023-04-04T08:54:53.696Z,12.80
2023-04-04T08:57:21.937Z,13.20
2023-04-04T08:59:50.211Z,13.30
2023-04-04T09:02:25.336Z,12.40
2023-04-04T09:05:05.519Z,12.60
2023-04-04T09:07:38.623Z,13.80
2023-04-04T09:10:10.690Z,14.20
2023-04-04T09:12:41.149Z,14.70
2023-04-04T09:15:10.805Z,15.00
2023-04-04T09:17:39.010Z,15.70
2023-04-04T09:20:42.292Z,15.80
2023-04-04T09:23:12.083Z,15.60
2023-04-04T09:25:56.233Z,16.50
2023-04-04T09:28:31.315Z,15.80
2023-04-04T09:31:01.961Z,15.40
2023-04-04T09:33:30.149Z,16.50
2023-04-04T09:36:02.950Z,16.90
2023-04-04T09:38:32.384Z,17.60
2023-04-04T09:41:00.857Z,18.00
2023-04-04T09:43:32.326Z,17.90
2023-04-04T09:46:02.356Z,17.50
2023-04-04T09:48:33.426Z,18.20
2023-04-04T09:51:06.775Z,18.00
2023-04-04T09:53:37.356Z,18.10
2023-04-04T09:56:07.050Z,18.40
2023-04-04T09:58:36.651Z,18.40
2023-04-04T10:01:09.683Z,17.00
2023-04-04T10:03:39.060Z,17.10
2023-04-04T10:06:10.545Z,18.60
2023-04-04T10:08:41.401Z,18.90
2023-04-04T10:11:12.256Z,18.80
2023-04-04T10:13:44.290Z,18.80
2023-04-04T10:16:12.672Z,19.00
2023-04-04T10:18:41.570Z,19.30
2023-04-04T10:21:15.653Z,19.60
2023-04-04T10:23:47.919Z,20.00
2023-04-04T10:26:16.361Z,20.00
2023-04-04T10:28:45.573Z,20.60
2023-04-04T10:31:21.704Z,20.00
2023-04-04T10:34:01.872Z,20.30
2023-04-04T10:36:37.623Z,20.00
2023-04-04T10:39:13.797Z,19.40
2023-04-04T10:41:42.531Z,19.50
2023-04-04T10:44:19.922Z,19.00
2023-04-04T10:46:51.301Z,19.70
2023-04-04T10:49:21.462Z,19.60
2023-04-04T10:51:56.442Z,20.10
2023-04-04T10:54:27.659Z,20.50
2023-04-04T10:57:00.806Z,21.10
2023-04-04T10:59:29.412Z,21.70
2023-04-04T11:01:58.855Z,20.70
2023-04-04T11:04:35.098Z,20.70
2023-04-04T11:07:13.377Z,21.40
2023-04-04T11:09:51.884Z,21.90
2023-04-04T11:15:12.701Z,21.00
2023-04-04T11:17:57.412Z,20.90
2023-04-04T11:20:34.610Z,21.50
2023-04-04T11:23:09.981Z,20.70
2023-04-04T11:28:08.980Z,21.90
2023-04-04T11:30:44.813Z,22.40
2023-04-04T11:33:15.350Z,22.50
2023-04-04T11:35:51.151Z,23.50
2023-04-04T11:38:21.945Z,23.50
2023-04-04T11:40:57.053Z,23.90
2023-04-04T11:43:26.945Z,24.00
2023-04-04T11:45:56.590Z,24.20
2023-04-04T11:48:25.376Z,24.00
2023-04-04T11:50:54.748Z,23.90
2023-04-04T11:53:24.163Z,24.00
2023-04-04T11:55:53.077Z,24.40
2023-04-04T11:58:21.225Z,24.00
2023-04-04T12:00:50.650Z,23.80
2023-04-04T12:03:19.102Z,23.60
2023-04-04T12:05:48.643Z,23.60
2023-04-04T12:08:18.088Z,24.30
2023-04-04T12:10:47.634Z,24.20
2023-04-04T12:13:16.395Z,24.10
2023-04-04T12:15:45.172Z,22.70
2023-04-04T12:18:22.724Z,23.60
2023-04-04T12:20:52.898Z,24.00
2023-04-04T12:23:21.771Z,23.00
2023-04-04T12:25:54.922Z,23.10
2023-04-04T12:28:24.034Z,23.40
2023-04-04T12:30:53.222Z,23.40
2023-04-04T12:33:22.245Z,23.70
2023-04-04T12:35:54.860Z,24.20
2023-04-04T12:38:23.540Z,23.00
2023-04-04T12:40:53.740Z,23.00
2023-04-04T12:43:22.059Z,24.10
2023-04-04T12:45:52.678Z,24.80
2023-04-04T12:48:23.084Z,24.60
2023-04-04T12:50:53.205Z,24.80
2023-04-04T12:53:28.558Z,24.90
2023-04-04T12:56:03.671Z,24.80
2023-04-04T12:58:34.264Z,24.80
2023-04-04T13:01:04.898Z,25.10
2023-04-04T13:03:35.205Z,25.30
2023-04-04T13:06:03.855Z,25.50
2023-04-04T13:08:32.526Z,24.60
2023-04-04T13:11:04.779Z,22.60
2023-04-04T13:13:35.345Z,23.50
2023-04-04T13:16:04.507Z,24.00
2023-04-04T13:18:38.372Z,24.40
2023-04-04T13:21:08.553Z,24.60
2023-04-04T13:23:39.540Z,24.70
2023-04-04T13:26:10.846Z,24.10
2023-04-04T13:28:39.133Z,24.60
2023-04-04T13:31:08.949Z,24.70
2023-04-04T13:33:38.961Z,24.00
2023-04-04T13:36:07.727Z,24.60
2023-04-04T13:38:35.845Z,24.70
2023-04-04T13:41:04.010Z,25.00
2023-04-04T13:43:33.553Z,24.50
2023-04-04T13:46:01.809Z,24.30
2023-04-04T13:48:29.964Z,24.30
2023-04-04T13:50:58.187Z,24.40
2023-04-04T13:53:26.346Z,23.40
2023-04-04T13:56:13.859Z,22.30
2023-04-04T13:58:44.233Z,22.60
2023-04-04T14:01:12.559Z,23.30
2023-04-04T14:03:41.020Z,23.60
2023-04-04T14:06:11.119Z,23.50
2023-04-04T14:08:40.108Z,23.80
2023-04-04T14:11:08.518Z,23.80
2023-04-04T14:13:37.342Z,23.60
2023-04-04T14:16:09.268Z,23.80
2023-04-04T14:18:37.547Z,24.00
2023-04-04T14:21:07.246Z,23.80
2023-04-04T14:23:35.416Z,24.00
2023-04-04T14:26:04.456Z,24.20
2023-04-04T14:28:32.792Z,23.90
2023-04-04T14:31:01.612Z,24.10
2023-04-04T14:33:31.341Z,23.40
2023-04-04T14:35:59.441Z,23.50
2023-04-04T14:38:27.567Z,23.60
2023-04-04T14:40:55.709Z,23.10
2023-04-04T14:43:23.897Z,23.30
2023-04-04T14:45:52.442Z,23.20
2023-04-04T14:48:20.561Z,23.30
2023-04-04T14:50:50.125Z,23.40
2023-04-04T14:53:18.807Z,23.30
2023-04-04T14:55:46.916Z,23.10
2023-04-04T14:58:15.072Z,23.00
2023-04-04T15:00:43.277Z,22.70
2023-04-04T15:03:11.594Z,22.40
2023-04-04T15:05:40.073Z,22.10
2023-04-04T15:08:09.832Z,22.30
2023-04-04T15:10:38.007Z,22.10
2023-04-04T15:13:06.166Z,22.40
2023-04-04T15:15:34.268Z,22.40
2023-04-04T15:18:03.465Z,21.90
2023-04-04T15:20:31.654Z,21.50
2023-04-04T15:22:59.769Z,21.50
2023-04-04T15:25:29.860Z,21.70
2023-04-04T15:27:57.974Z,21.60
2023-04-04T15:30:27.099Z,21.50
2023-04-04T15:32:56.260Z,21.30
2023-04-04T15:37:53.203Z,20.90
2023-04-04T15:40:22.690Z,20.80
2023-04-04T15:42:52.491Z,20.80
2023-04-04T15:45:20.696Z,20.90
2023-04-04T15:47:48.971Z,20.70
2023-04-04T15:50:17.146Z,20.80
2023-04-04T15:52:45.522Z,20.50
2023-04-04T15:55:17.086Z,20.30
2023-04-04T15:57:45.546Z,19.90
2023-04-04T16:00:17.018Z,20.00
2023-04-04T16:02:45.387Z,19.90
2023-04-04T16:05:13.673Z,19.70
2023-04-04T16:07:41.777Z,19.50
2023-04-04T16:10:11.296Z,19.40
2023-04-04T16:12:39.478Z,19.20
2023-04-04T16:15:09.468Z,19.00
2023-04-04T16:17:38.999Z,18.70
2023-04-04T16:20:08.210Z,18.70
2023-04-04T16:22:36.362Z,18.60
2023-04-04T16:25:04.764Z,18.30
2023-04-04T16:27:34.130Z,18.10
2023-04-04T16:30:02.524Z,18.00
2023-04-04T16:32:31.753Z,18.00
2023-04-04T16:35:01.396Z,17.60
2023-04-04T16:37:29.523Z,17.20
2023-04-04T16:40:00.272Z,17.10
2023-04-04T16:42:28.374Z,17.10
2023-04-04T16:44:56.597Z,17.00
2023-04-04T16:47:26.123Z,17.20
2023-04-04T16:49:55.091Z,17.20
2023-04-04T16:52:24.558Z,16.90
2023-04-04T16:54:54.404Z,17.00
2023-04-04T16:57:22.564Z,17.10
2023-04-04T16:59:50.698Z,17.10
2023-04-04T17:02:18.933Z,17.10
2023-04-04T17:04:47.103Z,17.10
2023-04-04T17:07:15.338Z,16.90
2023-04-04T17:09:47.099Z,16.90
2023-04-04T17:12:16.410Z,16.80
2023-04-04T17:14:45.259Z,16.50
2023-04-04T17:17:13.403Z,16.10
2023-04-04T17:19:41.473Z,16.10
2023-04-04T17:22:09.588Z,15.80
2023-04-04T17:24:37.680Z,15.80
2023-04-04T17:27:07.722Z,15.60
2023-04-04T17:29:36.150Z,15.60
2023-04-04T17:32:05.318Z,15.60
2023-04-04T17:34:33.473Z,15.40
2023-04-04T17:37:03.358Z,15.30
2023-04-04T17:39:31.500Z,15.30
2023-04-04T17:41:59.586Z,15.10
2023-04-04T17:44:29.135Z,15.10
2023-04-04T17:46:57.272Z,14.90
2023-04-04T17:49:27.179Z,14.80
2023-04-04T17:51:55.326Z,14.70
2023-04-04T17:54:25.925Z,14.50
2023-04-04T17:56:54.229Z,14.50
2023-04-04T17:59:22.379Z,14.30
2023-04-04T18:01:52.129Z,14.20
2023-04-04T18:04:22.230Z,14.20
2023-04-04T18:06:50.418Z,14.10
2023-04-04T18:09:18.666Z,14.00
2023-04-04T18:11:46.913Z,13.90
2023-04-04T18:14:15.465Z,13.80
2023-04-04T18:16:43.744Z,13.70
2023-04-04T18:19:13.339Z,13.60
2023-04-04T18:21:41.626Z,13.50
2023-04-04T18:24:11.801Z,13.40
2023-04-04T18:26:40.075Z,13.20
2023-04-04T18:29:08.353Z,13.20
2023-04-04T18:31:36.572Z,13.20
2023-04-04T18:34:04.714Z,13.00
2023-04-04T18:36:36.353Z,12.90
2023-04-04T18:39:04.772Z,12.70
2023-04-04T18:41:33.737Z,12.60
2023-04-04T18:44:02.027Z,12.50
2023-04-04T18:46:30.278Z,12.40
2023-04-04T18:48:58.441Z,12.30
2023-04-04T18:51:26.722Z,12.20
2023-04-04T18:53:56.317Z,12.20
2023-04-04T18:56:24.493Z,12.10
2023-04-04T18:58:52.789Z,11.90
2023-04-04T19:01:20.979Z,11.90
2023-04-04T19:03:51.496Z,11.70
2023-04-04T19:06:19.710Z,11.50
2023-04-04T19:08:48.739Z,11.40
2023-04-04T19:11:18.222Z,11.20
2023-04-04T19:13:46.306Z,11.20
2023-04-04T19:16:14.528Z,11.20
2023-04-04T19:18:43.741Z,11.20
2023-04-04T19:21:11.872Z,11.20
2023-04-04T19:23:40.091Z,11.00
2023-04-04T19:26:08.219Z,11.00
2023-04-04T19:28:37.652Z,10.90
2023-04-04T19:31:10.784Z,10.80
2023-04-04T19:33:39.679Z,10.80
2023-04-04T19:36:11.090Z,10.80
2023-04-04T19:38:42.512Z,10.70
2023-04-04T19:41:14.203Z,10.60
2023-04-04T19:43:45.626Z,10.60
2023-04-04T19:46:15.341Z,10.50
2023-04-04T19:48:46.123Z,10.50
2023-04-04T19:51:38.111Z,10.30
2023-04-04T19:54:09.241Z,10.10
2023-04-04T19:56:37.408Z,10.00
2023-04-04T19:59:10.417Z,10.00
2023-04-04T20:01:44.760Z,10.00
2023-04-04T20:04:19.004Z,9.90
2023-04-04T20:06:49.155Z,9.80
2023-04-04T20:09:34.631Z,9.50
2023-04-04T20:12:02.894Z,9.50
2023-04-04T20:14:32.417Z,9.50
2023-04-04T20:17:00.537Z,9.40
2023-04-04T20:19:30.840Z,9.40
2023-04-04T20:21:59.114Z,9.30
2023-04-04T20:24:28.484Z,9.20
2023-04-04T20:26:59.210Z,9.10
2023-04-04T20:29:28.859Z,9.00
2023-04-04T20:32:00.218Z,8.90
2023-04-04T20:34:45.786Z,8.70
2023-04-04T20:37:16.195Z,8.60
2023-04-04T20:39:48.971Z,8.50
2023-04-04T20:42:32.415Z,8.30
2023-04-04T20:45:07.527Z,8.30
2023-04-04T20:47:43.457Z,8.30
2023-04-04T20:50:53.020Z,8.20
2023-04-04T20:53:21.221Z,8.30
2023-04-04T20:55:50.645Z,8.10
2023-04-04T20:58:29.384Z,8.20
2023-04-04T21:06:12.926Z,7.90
2023-04-04T21:11:14.435Z,8.00
2023-04-04T21:16:13.267Z,7.80
2023-04-04T21:18:43.276Z,7.70
2023-04-04T21:21:18.614Z,7.60
2023-04-04T21:23:47.746Z,7.50
2023-04-04T21:26:29.838Z,7.40
2023-04-04T21:28:59.261Z,7.40
2023-04-04T21:31:30.854Z,7.40
2023-04-04T21:34:08.007Z,7.30
2023-04-04T21:36:36.228Z,7.30
2023-04-04T21:39:07.922Z,7.20
2023-04-04T21:41:36.592Z,7.10
2023-04-04T21:44:06.663Z,7.00
2023-04-04T21:46:36.994Z,7.00
2023-04-04T21:49:08.011Z,7.00
2023-04-04T21:51:36.711Z,6.90
2023-04-04T21:54:05.436Z,6.80
2023-04-04T21:56:33.565Z,6.80
2023-04-04T21:59:03.071Z,6.70
2023-04-04T22:01:31.560Z,6.70
2023-04-04T22:04:00.210Z,6.60
2023-04-04T22:06:31.153Z,6.50
2023-04-04T22:09:01.819Z,6.50
2023-04-04T22:11:30.271Z,6.40
2023-04-04T22:14:04.848Z,6.40
2023-04-04T22:16:37.028Z,6.30
2023-04-04T22:19:05.454Z,6.20
2023-04-04T22:21:36.616Z,6.20
2023-04-04T22:24:06.220Z,6.10
2023-04-04T22:26:34.711Z,6.10
2023-04-04T22:29:05.495Z,6.00
2023-04-04T22:31:35.195Z,6.00
2023-04-04T22:34:04.043Z,5.90
2023-04-04T22:36:34.394Z,5.80
2023-04-04T22:39:03.921Z,5.80
2023-04-04T22:41:32.039Z,5.70
2023-04-04T22:44:00.148Z,5.70
2023-04-04T22:46:29.380Z,5.60
2023-04-04T22:49:05.241Z,5.60
2023-04-04T22:51:45.769Z,5.50
2023-04-04T22:54:16.894Z,5.50
2023-04-04T22:56:45.508Z,5.40
2023-04-04T22:59:16.654Z,5.40
2023-04-04T23:01:44.874Z,5.30
2023-04-04T23:04:13.057Z,5.30
2023-04-04T23:06:41.262Z,5.20
2023-04-04T23:09:09.499Z,5.10
2023-04-04T23:14:09.820Z,5.00
2023-04-04T23:16:38.400Z,5.00
2023-04-04T23:19:06.681Z,4.90
2023-04-04T23:21:34.859Z,4.90
2023-04-04T23:24:03.206Z,4.80
2023-04-04T23:26:32.506Z,4.80
2023-04-04T23:29:03.097Z,4.80
2023-04-04T23:34:00.033Z,4.70
2023-04-04T23:36:28.330Z,4.70
2023-04-04T23:41:26.366Z,4.30
2023-04-04T23:43:54.603Z,4.50
2023-04-04T23:46:24.191Z,4.50
2023-04-04T23:48:52.436Z,4.50
2023-04-04T23:51:21.445Z,4.20
2023-04-04T23:53:49.592Z,4.20
2023-04-04T23:56:17.822Z,4.20
2023-04-04T23:58:46.176Z,4.10
